sensor_id;sensor_type;location;lat;lon;timestamp;pressure;altitude;pressure_sealevel;temperature;humidity
24422;BME280;12600;53.326;-6.298;2022-09-09T00:02:28;100219.84;;;17.98;84.61
24422;BME280;12600;53.326;-6.298;2022-09-09T00:05:02;100212.41;;;18.02;83.81
24422;BME280;12600;53.326;-6.298;2022-09-09T00:07:45;100201.09;;;17.87;84.18
24422;BME280;12600;53.326;-6.298;2022-09-09T00:10:20;100206.75;;;17.95;84.45
24422;BME280;12600;53.326;-6.298;2022-09-09T00:13:04;100213.34;;;17.86;84.99
24422;BME280;12600;53.326;-6.298;2022-09-09T00:15:46;100212.16;;;17.87;84.60
24422;BME280;12600;53.326;-6.298;2022-09-09T00:18:24;100211.31;;;17.83;84.75
24422;BME280;12600;53.326;-6.298;2022-09-09T00:21:02;100213.66;;;17.81;84.76
24422;BME280;12600;53.326;-6.298;2022-09-09T00:23:39;100208.06;;;17.78;84.85
24422;BME280;12600;53.326;-6.298;2022-09-09T00:26:14;100209.22;;;17.77;84.71
24422;BME280;12600;53.326;-6.298;2022-09-09T00:28:52;100205.50;;;17.69;84.92
24422;BME280;12600;53.326;-6.298;2022-09-09T00:31:29;100222.25;;;17.76;85.07
24422;BME280;12600;53.326;-6.298;2022-09-09T00:34:09;100213.47;;;17.71;85.70
24422;BME280;12600;53.326;-6.298;2022-09-09T00:36:42;100222.53;;;17.71;85.63
24422;BME280;12600;53.326;-6.298;2022-09-09T00:39:30;100212.28;;;17.72;85.95
24422;BME280;12600;53.326;-6.298;2022-09-09T00:42:14;100215.84;;;17.72;86.83
24422;BME280;12600;53.326;-6.298;2022-09-09T00:44:55;100214.72;;;17.73;85.95
24422;BME280;12600;53.326;-6.298;2022-09-09T00:47:47;100194.75;;;17.64;86.67
24422;BME280;12600;53.326;-6.298;2022-09-09T00:50:33;100208.00;;;17.74;86.69
24422;BME280;12600;53.326;-6.298;2022-09-09T00:53:20;100199.97;;;17.69;86.81
24422;BME280;12600;53.326;-6.298;2022-09-09T00:56:00;100205.16;;;17.71;86.06
24422;BME280;12600;53.326;-6.298;2022-09-09T00:58:33;100190.41;;;17.63;86.11
24422;BME280;12600;53.326;-6.298;2022-09-09T01:01:06;100197.22;;;17.69;86.07
24422;BME280;12600;53.326;-6.298;2022-09-09T01:03:39;100204.78;;;17.72;86.89
24422;BME280;12600;53.326;-6.298;2022-09-09T01:06:17;100199.63;;;17.71;86.90
24422;BME280;12600;53.326;-6.298;2022-09-09T01:09:15;100196.44;;;17.69;86.98
24422;BME280;12600;53.326;-6.298;2022-09-09T01:11:55;100197.09;;;17.62;87.81
24422;BME280;12600;53.326;-6.298;2022-09-09T01:14:41;100199.44;;;17.60;87.14
24422;BME280;12600;53.326;-6.298;2022-09-09T01:17:17;100203.91;;;17.68;87.52
24422;BME280;12600;53.326;-6.298;2022-09-09T01:20:08;100202.31;;;17.67;87.50
24422;BME280;12600;53.326;-6.298;2022-09-09T01:23:02;100210.19;;;17.65;87.36
24422;BME280;12600;53.326;-6.298;2022-09-09T01:26:24;100193.63;;;17.65;88.34
24422;BME280;12600;53.326;-6.298;2022-09-09T01:28:58;100207.84;;;17.67;87.66
24422;BME280;12600;53.326;-6.298;2022-09-09T01:31:39;100195.94;;;17.63;87.49
24422;BME280;12600;53.326;-6.298;2022-09-09T01:34:11;100201.53;;;17.67;87.43
24422;BME280;12600;53.326;-6.298;2022-09-09T01:36:46;100196.25;;;17.58;87.81
24422;BME280;12600;53.326;-6.298;2022-09-09T01:39:18;100207.84;;;17.67;87.97
24422;BME280;12600;53.326;-6.298;2022-09-09T01:41:59;100197.88;;;17.62;88.63
24422;BME280;12600;53.326;-6.298;2022-09-09T01:44:28;100202.63;;;17.62;88.61
24422;BME280;12600;53.326;-6.298;2022-09-09T01:46:58;100205.38;;;17.62;88.66
24422;BME280;12600;53.326;-6.298;2022-09-09T01:49:28;100202.19;;;17.60;88.98
24422;BME280;12600;53.326;-6.298;2022-09-09T01:51:58;100192.59;;;17.54;88.10
24422;BME280;12600;53.326;-6.298;2022-09-09T01:54:33;100200.22;;;17.60;88.93
24422;BME280;12600;53.326;-6.298;2022-09-09T01:57:17;100204.53;;;17.58;88.55
24422;BME280;12600;53.326;-6.298;2022-09-09T02:00:00;100198.56;;;17.56;89.14
24422;BME280;12600;53.326;-6.298;2022-09-09T02:02:48;100192.69;;;17.57;88.23
24422;BME280;12600;53.326;-6.298;2022-09-09T02:05:36;100185.34;;;17.46;89.82
24422;BME280;12600;53.326;-6.298;2022-09-09T02:08:17;100189.34;;;17.48;89.22
24422;BME280;12600;53.326;-6.298;2022-09-09T02:10:59;100187.41;;;17.49;88.46
24422;BME280;12600;53.326;-6.298;2022-09-09T02:13:43;100186.72;;;17.55;88.68
24422;BME280;12600;53.326;-6.298;2022-09-09T02:16:21;100196.16;;;17.54;89.64
24422;BME280;12600;53.326;-6.298;2022-09-09T02:18:59;100174.63;;;17.41;89.11
24422;BME280;12600;53.326;-6.298;2022-09-09T02:21:42;100179.41;;;17.44;88.83
24422;BME280;12600;53.326;-6.298;2022-09-09T02:24:14;100176.28;;;17.45;89.05
24422;BME280;12600;53.326;-6.298;2022-09-09T02:26:53;100188.31;;;17.56;89.18
24422;BME280;12600;53.326;-6.298;2022-09-09T02:29:29;100181.56;;;17.54;89.06
24422;BME280;12600;53.326;-6.298;2022-09-09T02:32:06;100187.09;;;17.54;89.43
24422;BME280;12600;53.326;-6.298;2022-09-09T02:34:45;100176.34;;;17.49;88.94
24422;BME280;12600;53.326;-6.298;2022-09-09T02:37:19;100179.84;;;17.46;88.84
24422;BME280;12600;53.326;-6.298;2022-09-09T02:39:53;100203.03;;;17.64;88.81
24422;BME280;12600;53.326;-6.298;2022-09-09T02:42:23;100203.38;;;17.59;88.88
24422;BME280;12600;53.326;-6.298;2022-09-09T02:44:56;100194.19;;;17.55;89.07
24422;BME280;12600;53.326;-6.298;2022-09-09T02:47:30;100193.03;;;17.56;88.92
24422;BME280;12600;53.326;-6.298;2022-09-09T02:50:15;100189.47;;;17.55;89.27
24422;BME280;12600;53.326;-6.298;2022-09-09T02:53:01;100197.84;;;17.59;89.31
24422;BME280;12600;53.326;-6.298;2022-09-09T02:55:45;100194.34;;;17.62;88.82
24422;BME280;12600;53.326;-6.298;2022-09-09T02:58:18;100191.56;;;17.62;88.73
24422;BME280;12600;53.326;-6.298;2022-09-09T03:01:03;100190.34;;;17.59;89.67
24422;BME280;12600;53.326;-6.298;2022-09-09T03:03:33;100189.56;;;17.59;89.59
24422;BME280;12600;53.326;-6.298;2022-09-09T03:06:07;100187.59;;;17.59;89.86
24422;BME280;12600;53.326;-6.298;2022-09-09T03:08:38;100135.75;;;17.30;89.53
24422;BME280;12600;53.326;-6.298;2022-09-09T03:11:12;100153.81;;;17.47;89.13
24422;BME280;12600;53.326;-6.298;2022-09-09T03:13:42;100180.50;;;17.62;88.73
24422;BME280;12600;53.326;-6.298;2022-09-09T03:16:14;100170.50;;;17.54;89.93
24422;BME280;12600;53.326;-6.298;2022-09-09T03:18:47;100162.59;;;17.52;89.61
24422;BME280;12600;53.326;-6.298;2022-09-09T03:21:17;100166.53;;;17.51;89.51
24422;BME280;12600;53.326;-6.298;2022-09-09T03:23:46;100171.31;;;17.54;89.86
24422;BME280;12600;53.326;-6.298;2022-09-09T03:26:16;100171.31;;;17.54;89.91
24422;BME280;12600;53.326;-6.298;2022-09-09T03:28:47;100176.41;;;17.52;88.97
24422;BME280;12600;53.326;-6.298;2022-09-09T03:31:20;100170.84;;;17.49;89.15
24422;BME280;12600;53.326;-6.298;2022-09-09T03:33:50;100157.97;;;17.37;89.45
24422;BME280;12600;53.326;-6.298;2022-09-09T03:36:21;100178.38;;;17.52;89.07
24422;BME280;12600;53.326;-6.298;2022-09-09T03:38:50;100174.69;;;17.44;89.36
24422;BME280;12600;53.326;-6.298;2022-09-09T03:41:20;100178.75;;;17.50;88.72
24422;BME280;12600;53.326;-6.298;2022-09-09T03:43:52;100164.72;;;17.40;89.99
24422;BME280;12600;53.326;-6.298;2022-09-09T03:46:26;100168.22;;;17.37;89.98
24422;BME280;12600;53.326;-6.298;2022-09-09T03:48:55;100171.25;;;17.51;89.14
24422;BME280;12600;53.326;-6.298;2022-09-09T03:51:25;100180.34;;;17.51;88.97
24422;BME280;12600;53.326;-6.298;2022-09-09T03:53:54;100165.97;;;17.42;89.64
24422;BME280;12600;53.326;-6.298;2022-09-09T03:56:25;100187.44;;;17.52;89.02
24422;BME280;12600;53.326;-6.298;2022-09-09T03:58:56;100181.44;;;17.47;89.28
24422;BME280;12600;53.326;-6.298;2022-09-09T04:01:27;100182.16;;;17.44;89.67
24422;BME280;12600;53.326;-6.298;2022-09-09T04:03:57;100190.16;;;17.49;89.44
24422;BME280;12600;53.326;-6.298;2022-09-09T04:06:27;100186.09;;;17.43;89.45
24422;BME280;12600;53.326;-6.298;2022-09-09T04:08:56;100180.94;;;17.41;89.97
24422;BME280;12600;53.326;-6.298;2022-09-09T04:11:26;100183.63;;;17.38;89.91
24422;BME280;12600;53.326;-6.298;2022-09-09T04:13:58;100170.94;;;17.33;90.17
24422;BME280;12600;53.326;-6.298;2022-09-09T04:16:31;100162.53;;;17.26;90.38
24422;BME280;12600;53.326;-6.298;2022-09-09T04:19:00;100182.69;;;17.30;89.41
24422;BME280;12600;53.326;-6.298;2022-09-09T04:21:32;100178.72;;;17.27;90.77
24422;BME280;12600;53.326;-6.298;2022-09-09T04:24:02;100185.09;;;17.31;90.02
24422;BME280;12600;53.326;-6.298;2022-09-09T04:26:32;100177.53;;;17.28;90.88
24422;BME280;12600;53.326;-6.298;2022-09-09T04:29:01;100191.50;;;17.36;90.15
24422;BME280;12600;53.326;-6.298;2022-09-09T04:31:33;100185.97;;;17.36;90.09
24422;BME280;12600;53.326;-6.298;2022-09-09T04:34:02;100188.78;;;17.39;89.91
24422;BME280;12600;53.326;-6.298;2022-09-09T04:36:33;100177.69;;;17.36;90.44
24422;BME280;12600;53.326;-6.298;2022-09-09T04:39:05;100197.06;;;17.39;89.82
24422;BME280;12600;53.326;-6.298;2022-09-09T04:41:34;100181.09;;;17.29;90.20
24422;BME280;12600;53.326;-6.298;2022-09-09T04:44:04;100188.34;;;17.37;89.40
24422;BME280;12600;53.326;-6.298;2022-09-09T04:46:35;100189.91;;;17.34;89.55
24422;BME280;12600;53.326;-6.298;2022-09-09T04:49:04;100189.81;;;17.31;90.80
24422;BME280;12600;53.326;-6.298;2022-09-09T04:51:35;100189.69;;;17.24;90.80
24422;BME280;12600;53.326;-6.298;2022-09-09T04:54:05;100189.38;;;17.29;89.64
24422;BME280;12600;53.326;-6.298;2022-09-09T04:56:37;100186.19;;;17.27;90.18
24422;BME280;12600;53.326;-6.298;2022-09-09T04:59:06;100191.63;;;17.23;90.69
24422;BME280;12600;53.326;-6.298;2022-09-09T05:01:43;100176.91;;;17.16;90.46
24422;BME280;12600;53.326;-6.298;2022-09-09T05:04:13;100173.56;;;17.06;90.77
24422;BME280;12600;53.326;-6.298;2022-09-09T05:06:43;100190.22;;;17.10;90.79
24422;BME280;12600;53.326;-6.298;2022-09-09T05:09:13;100198.19;;;17.15;90.63
24422;BME280;12600;53.326;-6.298;2022-09-09T05:11:44;100190.69;;;17.16;91.39
24422;BME280;12600;53.326;-6.298;2022-09-09T05:14:21;100187.88;;;17.12;91.03
24422;BME280;12600;53.326;-6.298;2022-09-09T05:16:52;100193.03;;;17.14;91.13
24422;BME280;12600;53.326;-6.298;2022-09-09T05:19:22;100198.50;;;17.10;90.50
24422;BME280;12600;53.326;-6.298;2022-09-09T05:21:53;100200.94;;;17.15;91.18
24422;BME280;12600;53.326;-6.298;2022-09-09T05:24:29;100167.41;;;16.94;91.30
24422;BME280;12600;53.326;-6.298;2022-09-09T05:27:02;100184.47;;;16.99;91.44
24422;BME280;12600;53.326;-6.298;2022-09-09T05:29:33;100192.97;;;17.10;90.84
24422;BME280;12600;53.326;-6.298;2022-09-09T05:32:06;100200.53;;;17.13;91.21
24422;BME280;12600;53.326;-6.298;2022-09-09T05:34:43;100206.41;;;17.12;91.63
24422;BME280;12600;53.326;-6.298;2022-09-09T05:37:12;100206.47;;;17.15;91.60
24422;BME280;12600;53.326;-6.298;2022-09-09T05:39:42;100200.59;;;17.17;91.59
24422;BME280;12600;53.326;-6.298;2022-09-09T05:42:12;100208.06;;;17.16;91.47
24422;BME280;12600;53.326;-6.298;2022-09-09T05:44:42;100179.03;;;17.03;90.81
24422;BME280;12600;53.326;-6.298;2022-09-09T05:47:14;100216.81;;;17.18;91.03
24422;BME280;12600;53.326;-6.298;2022-09-09T05:49:43;100212.72;;;17.12;91.44
24422;BME280;12600;53.326;-6.298;2022-09-09T05:52:13;100218.31;;;17.16;91.60
24422;BME280;12600;53.326;-6.298;2022-09-09T05:54:42;100215.34;;;17.05;91.44
24422;BME280;12600;53.326;-6.298;2022-09-09T05:57:12;100228.56;;;17.15;92.09
24422;BME280;12600;53.326;-6.298;2022-09-09T05:59:41;100215.28;;;17.01;91.60
24422;BME280;12600;53.326;-6.298;2022-09-09T06:02:10;100230.44;;;17.11;91.87
24422;BME280;12600;53.326;-6.298;2022-09-09T06:04:41;100235.97;;;17.11;91.54
24422;BME280;12600;53.326;-6.298;2022-09-09T06:07:11;100238.38;;;17.13;92.45
24422;BME280;12600;53.326;-6.298;2022-09-09T06:09:42;100235.53;;;17.09;91.92
24422;BME280;12600;53.326;-6.298;2022-09-09T06:12:12;100237.56;;;17.12;92.38
24422;BME280;12600;53.326;-6.298;2022-09-09T06:14:42;100236.69;;;17.08;91.63
24422;BME280;12600;53.326;-6.298;2022-09-09T06:17:17;100241.13;;;17.13;91.77
24422;BME280;12600;53.326;-6.298;2022-09-09T06:19:50;100235.66;;;17.16;91.33
24422;BME280;12600;53.326;-6.298;2022-09-09T06:22:22;100238.59;;;17.04;92.47
24422;BME280;12600;53.326;-6.298;2022-09-09T06:24:52;100251.88;;;17.18;92.16
24422;BME280;12600;53.326;-6.298;2022-09-09T06:27:21;100249.25;;;17.05;92.63
24422;BME280;12600;53.326;-6.298;2022-09-09T06:29:50;100255.00;;;17.16;92.30
24422;BME280;12600;53.326;-6.298;2022-09-09T06:32:20;100255.44;;;17.18;92.33
24422;BME280;12600;53.326;-6.298;2022-09-09T06:34:51;100263.00;;;17.21;91.27
24422;BME280;12600;53.326;-6.298;2022-09-09T06:37:21;100261.41;;;17.20;91.91
24422;BME280;12600;53.326;-6.298;2022-09-09T06:39:51;100270.84;;;17.19;92.20
24422;BME280;12600;53.326;-6.298;2022-09-09T06:42:23;100259.81;;;17.19;91.94
24422;BME280;12600;53.326;-6.298;2022-09-09T06:45:04;100267.06;;;17.27;92.58
24422;BME280;12600;53.326;-6.298;2022-09-09T06:47:45;100284.50;;;17.31;91.33
24422;BME280;12600;53.326;-6.298;2022-09-09T06:50:16;100274.94;;;17.25;91.91
24422;BME280;12600;53.326;-6.298;2022-09-09T06:52:46;100273.25;;;17.21;92.28
24422;BME280;12600;53.326;-6.298;2022-09-09T06:55:16;100290.38;;;17.30;91.67
24422;BME280;12600;53.326;-6.298;2022-09-09T06:57:48;100282.19;;;17.33;91.57
24422;BME280;12600;53.326;-6.298;2022-09-09T07:00:24;100285.81;;;17.38;91.60
24422;BME280;12600;53.326;-6.298;2022-09-09T07:02:54;100292.06;;;17.34;92.16
24422;BME280;12600;53.326;-6.298;2022-09-09T07:05:24;100297.97;;;17.33;91.51
24422;BME280;12600;53.326;-6.298;2022-09-09T07:07:54;100297.22;;;17.36;92.17
24422;BME280;12600;53.326;-6.298;2022-09-09T07:10:24;100280.72;;;17.20;92.17
24422;BME280;12600;53.326;-6.298;2022-09-09T07:12:55;100308.41;;;17.43;91.70
24422;BME280;12600;53.326;-6.298;2022-09-09T07:15:25;100298.44;;;17.39;91.82
24422;BME280;12600;53.326;-6.298;2022-09-09T07:17:55;100320.78;;;17.49;92.22
24422;BME280;12600;53.326;-6.298;2022-09-09T07:20:29;100322.44;;;17.54;91.83
24422;BME280;12600;53.326;-6.298;2022-09-09T07:22:58;100320.09;;;17.56;91.42
24422;BME280;12600;53.326;-6.298;2022-09-09T07:25:31;100332.31;;;17.55;91.80
24422;BME280;12600;53.326;-6.298;2022-09-09T07:28:01;100330.13;;;17.64;92.39
24422;BME280;12600;53.326;-6.298;2022-09-09T07:30:32;100329.41;;;17.67;91.57
24422;BME280;12600;53.326;-6.298;2022-09-09T07:33:07;100335.81;;;17.71;91.61
24422;BME280;12600;53.326;-6.298;2022-09-09T07:35:38;100315.19;;;17.65;91.73
24422;BME280;12600;53.326;-6.298;2022-09-09T07:38:08;100339.75;;;17.70;91.52
24422;BME280;12600;53.326;-6.298;2022-09-09T07:40:39;100341.25;;;17.68;90.74
24422;BME280;12600;53.326;-6.298;2022-09-09T07:43:08;100339.84;;;17.74;91.85
24422;BME280;12600;53.326;-6.298;2022-09-09T07:45:43;100354.81;;;17.73;91.38
24422;BME280;12600;53.326;-6.298;2022-09-09T07:48:12;100355.75;;;17.80;91.21
24422;BME280;12600;53.326;-6.298;2022-09-09T07:50:45;100345.50;;;17.81;91.64
24422;BME280;12600;53.326;-6.298;2022-09-09T07:53:15;100359.66;;;17.99;92.09
24422;BME280;12600;53.326;-6.298;2022-09-09T07:55:45;100360.16;;;18.04;91.67
24422;BME280;12600;53.326;-6.298;2022-09-09T07:58:14;100370.63;;;18.14;91.42
24422;BME280;12600;53.326;-6.298;2022-09-09T08:00:44;100374.59;;;18.17;90.84
24422;BME280;12600;53.326;-6.298;2022-09-09T08:03:13;100372.34;;;18.23;90.48
24422;BME280;12600;53.326;-6.298;2022-09-09T08:05:42;100389.88;;;18.30;90.96
24422;BME280;12600;53.326;-6.298;2022-09-09T08:08:13;100396.34;;;18.38;90.65
24422;BME280;12600;53.326;-6.298;2022-09-09T08:10:45;100376.59;;;18.39;90.61
24422;BME280;12600;53.326;-6.298;2022-09-09T08:13:14;100393.13;;;18.59;90.88
24422;BME280;12600;53.326;-6.298;2022-09-09T08:15:48;100401.13;;;18.87;90.70
24422;BME280;12600;53.326;-6.298;2022-09-09T08:18:19;100405.19;;;19.19;90.74
24422;BME280;12600;53.326;-6.298;2022-09-09T08:20:50;100398.50;;;19.24;88.96
24422;BME280;12600;53.326;-6.298;2022-09-09T08:23:21;100407.28;;;19.26;86.84
24422;BME280;12600;53.326;-6.298;2022-09-09T08:25:50;100414.31;;;19.20;87.65
24422;BME280;12600;53.326;-6.298;2022-09-09T08:28:19;100413.44;;;19.16;88.49
24422;BME280;12600;53.326;-6.298;2022-09-09T08:30:49;100430.03;;;19.16;88.38
24422;BME280;12600;53.326;-6.298;2022-09-09T08:33:21;100425.66;;;19.11;87.83
24422;BME280;12600;53.326;-6.298;2022-09-09T08:35:51;100408.81;;;18.97;87.41
24422;BME280;12600;53.326;-6.298;2022-09-09T08:38:22;100431.56;;;19.10;88.05
24422;BME280;12600;53.326;-6.298;2022-09-09T08:41:02;100429.94;;;19.09;86.64
24422;BME280;12600;53.326;-6.298;2022-09-09T08:43:34;100434.06;;;19.18;87.26
24422;BME280;12600;53.326;-6.298;2022-09-09T08:46:09;100429.91;;;19.05;84.52
24422;BME280;12600;53.326;-6.298;2022-09-09T08:48:51;100434.59;;;19.01;85.51
24422;BME280;12600;53.326;-6.298;2022-09-09T08:51:27;100439.94;;;19.17;87.03
24422;BME280;12600;53.326;-6.298;2022-09-09T08:54:02;100442.53;;;19.29;87.25
24422;BME280;12600;53.326;-6.298;2022-09-09T08:56:33;100443.16;;;19.45;86.36
24422;BME280;12600;53.326;-6.298;2022-09-09T08:59:04;100440.06;;;19.50;84.77
24422;BME280;12600;53.326;-6.298;2022-09-09T09:01:50;100445.75;;;19.58;85.44
24422;BME280;12600;53.326;-6.298;2022-09-09T09:05:02;100469.25;;;19.71;83.74
24422;BME280;12600;53.326;-6.298;2022-09-09T09:07:51;100471.22;;;19.67;83.96
24422;BME280;12600;53.326;-6.298;2022-09-09T09:10:46;100477.44;;;19.60;83.28
24422;BME280;12600;53.326;-6.298;2022-09-09T09:13:24;100474.34;;;19.65;84.65
24422;BME280;12600;53.326;-6.298;2022-09-09T09:16:04;100477.13;;;19.65;83.12
24422;BME280;12600;53.326;-6.298;2022-09-09T09:18:35;100489.47;;;19.71;83.39
24422;BME280;12600;53.326;-6.298;2022-09-09T09:21:12;100497.41;;;19.73;82.49
24422;BME280;12600;53.326;-6.298;2022-09-09T09:23:48;100472.31;;;19.62;83.89
24422;BME280;12600;53.326;-6.298;2022-09-09T09:26:27;100486.31;;;19.73;83.40
24422;BME280;12600;53.326;-6.298;2022-09-09T09:28:59;100504.72;;;19.84;84.06
24422;BME280;12600;53.326;-6.298;2022-09-09T09:31:30;100504.81;;;19.92;83.55
24422;BME280;12600;53.326;-6.298;2022-09-09T09:34:00;100503.72;;;20.00;83.02
24422;BME280;12600;53.326;-6.298;2022-09-09T09:36:38;100510.16;;;20.07;82.63
24422;BME280;12600;53.326;-6.298;2022-09-09T09:39:22;100522.53;;;20.14;81.91
24422;BME280;12600;53.326;-6.298;2022-09-09T09:42:17;100530.09;;;20.17;82.25
24422;BME280;12600;53.326;-6.298;2022-09-09T09:44:50;100521.72;;;20.13;80.54
24422;BME280;12600;53.326;-6.298;2022-09-09T09:47:22;100525.72;;;20.16;81.57
24422;BME280;12600;53.326;-6.298;2022-09-09T09:50:00;100527.31;;;20.17;81.37
24422;BME280;12600;53.326;-6.298;2022-09-09T09:52:36;100533.69;;;20.21;81.49
24422;BME280;12600;53.326;-6.298;2022-09-09T09:55:14;100538.53;;;20.27;80.53
24422;BME280;12600;53.326;-6.298;2022-09-09T09:57:47;100535.44;;;20.32;80.01
24422;BME280;12600;53.326;-6.298;2022-09-09T10:00:19;100538.25;;;20.36;80.93
24422;BME280;12600;53.326;-6.298;2022-09-09T10:03:00;100548.75;;;20.50;80.45
24422;BME280;12600;53.326;-6.298;2022-09-09T10:05:36;100554.41;;;20.60;79.34
24422;BME280;12600;53.326;-6.298;2022-09-09T10:08:13;100556.53;;;20.71;79.09
24422;BME280;12600;53.326;-6.298;2022-09-09T10:11:06;100542.28;;;20.76;78.54
24422;BME280;12600;53.326;-6.298;2022-09-09T10:13:50;100557.59;;;21.00;79.08
24422;BME280;12600;53.326;-6.298;2022-09-09T10:16:39;100547.28;;;21.00;77.35
24422;BME280;12600;53.326;-6.298;2022-09-09T10:19:15;100553.03;;;21.18;78.58
24422;BME280;12600;53.326;-6.298;2022-09-09T10:22:09;100565.34;;;21.20;75.35
24422;BME280;12600;53.326;-6.298;2022-09-09T10:25:29;100565.56;;;21.42;75.48
24422;BME280;12600;53.326;-6.298;2022-09-09T10:28:54;100570.41;;;21.52;73.08
24422;BME280;12600;53.326;-6.298;2022-09-09T10:31:30;100571.97;;;21.49;71.37
24422;BME280;12600;53.326;-6.298;2022-09-09T10:34:18;100574.47;;;21.65;72.80
24422;BME280;12600;53.326;-6.298;2022-09-09T10:36:58;100581.31;;;21.78;73.33
24422;BME280;12600;53.326;-6.298;2022-09-09T10:39:36;100579.84;;;21.95;73.27
24422;BME280;12600;53.326;-6.298;2022-09-09T10:42:12;100579.16;;;22.09;71.96
24422;BME280;12600;53.326;-6.298;2022-09-09T10:44:57;100566.47;;;22.19;70.25
24422;BME280;12600;53.326;-6.298;2022-09-09T10:48:02;100587.22;;;22.32;67.64
24422;BME280;12600;53.326;-6.298;2022-09-09T10:50:54;100577.28;;;22.31;66.01
24422;BME280;12600;53.326;-6.298;2022-09-09T10:53:40;100575.97;;;22.11;66.91
24422;BME280;12600;53.326;-6.298;2022-09-09T10:56:16;100571.50;;;21.95;66.91
24422;BME280;12600;53.326;-6.298;2022-09-09T10:58:50;100588.22;;;22.02;67.49
24422;BME280;12600;53.326;-6.298;2022-09-09T11:01:25;100595.22;;;21.78;66.25
24422;BME280;12600;53.326;-6.298;2022-09-09T11:04:01;100585.22;;;21.67;66.97
24422;BME280;12600;53.326;-6.298;2022-09-09T11:06:37;100587.91;;;21.56;68.10
24422;BME280;12600;53.326;-6.298;2022-09-09T11:09:14;100601.81;;;21.56;68.43
24422;BME280;12600;53.326;-6.298;2022-09-09T11:11:50;100605.72;;;21.48;68.52
24422;BME280;12600;53.326;-6.298;2022-09-09T11:14:29;100607.28;;;21.45;68.43
24422;BME280;12600;53.326;-6.298;2022-09-09T11:17:12;100600.09;;;21.41;68.23
24422;BME280;12600;53.326;-6.298;2022-09-09T11:19:43;100620.19;;;21.68;69.12
24422;BME280;12600;53.326;-6.298;2022-09-09T11:22:23;100597.53;;;21.66;68.87
24422;BME280;12600;53.326;-6.298;2022-09-09T11:25:00;100607.53;;;21.77;67.67
24422;BME280;12600;53.326;-6.298;2022-09-09T11:27:37;100621.50;;;21.85;68.07
24422;BME280;12600;53.326;-6.298;2022-09-09T11:30:19;100620.72;;;21.88;67.48
24422;BME280;12600;53.326;-6.298;2022-09-09T11:33:54;100624.28;;;21.85;67.89
24422;BME280;12600;53.326;-6.298;2022-09-09T11:40:08;100628.66;;;21.86;67.76
24422;BME280;12600;53.326;-6.298;2022-09-09T11:42:43;100619.47;;;21.82;68.92
24422;BME280;12600;53.326;-6.298;2022-09-09T11:45:23;100636.53;;;21.76;67.84
24422;BME280;12600;53.326;-6.298;2022-09-09T11:47:57;100636.41;;;21.59;68.30
24422;BME280;12600;53.326;-6.298;2022-09-09T11:50:36;100642.28;;;21.50;69.63
24422;BME280;12600;53.326;-6.298;2022-09-09T11:53:23;100628.47;;;21.64;69.52
24422;BME280;12600;53.326;-6.298;2022-09-09T11:56:09;100641.88;;;22.03;70.34
24422;BME280;12600;53.326;-6.298;2022-09-09T11:58:55;100617.53;;;22.48;68.97
24422;BME280;12600;53.326;-6.298;2022-09-09T12:01:35;100636.75;;;22.81;66.70
24422;BME280;12600;53.326;-6.298;2022-09-09T12:04:32;100634.84;;;23.00;64.75
24422;BME280;12600;53.326;-6.298;2022-09-09T12:07:05;100623.28;;;22.98;65.02
24422;BME280;12600;53.326;-6.298;2022-09-09T12:09:55;100644.06;;;23.18;64.38
24422;BME280;12600;53.326;-6.298;2022-09-09T12:12:30;100626.91;;;23.12;63.60
24422;BME280;12600;53.326;-6.298;2022-09-09T12:15:22;100643.22;;;23.17;61.56
24422;BME280;12600;53.326;-6.298;2022-09-09T12:17:54;100641.72;;;23.70;62.15
24422;BME280;12600;53.326;-6.298;2022-09-09T12:20:34;100626.94;;;24.05;60.43
24422;BME280;12600;53.326;-6.298;2022-09-09T12:23:25;100643.53;;;24.69;57.65
24422;BME280;12600;53.326;-6.298;2022-09-09T12:26:16;100642.22;;;24.92;56.65
24422;BME280;12600;53.326;-6.298;2022-09-09T12:28:58;100637.41;;;24.99;58.19
24422;BME280;12600;53.326;-6.298;2022-09-09T12:31:38;100645.41;;;25.04;58.86
24422;BME280;12600;53.326;-6.298;2022-09-09T12:34:17;100630.75;;;24.72;57.36
24422;BME280;12600;53.326;-6.298;2022-09-09T12:36:54;100655.91;;;24.68;58.01
24422;BME280;12600;53.326;-6.298;2022-09-09T12:39:34;100639.66;;;24.20;57.29
24422;BME280;12600;53.326;-6.298;2022-09-09T12:42:16;100650.47;;;24.08;58.62
24422;BME280;12600;53.326;-6.298;2022-09-09T12:44:53;100657.66;;;23.87;59.04
24422;BME280;12600;53.326;-6.298;2022-09-09T12:47:29;100663.25;;;23.73;59.53
24422;BME280;12600;53.326;-6.298;2022-09-09T12:50:01;100662.84;;;23.60;60.51
24422;BME280;12600;53.326;-6.298;2022-09-09T12:52:34;100662.41;;;23.40;60.42
24422;BME280;12600;53.326;-6.298;2022-09-09T12:55:07;100650.44;;;23.29;61.27
24422;BME280;12600;53.326;-6.298;2022-09-09T12:57:38;100639.28;;;23.29;61.65
24422;BME280;12600;53.326;-6.298;2022-09-09T13:00:15;100666.03;;;23.62;61.84
24422;BME280;12600;53.326;-6.298;2022-09-09T13:02:51;100666.84;;;23.91;61.90
24422;BME280;12600;53.326;-6.298;2022-09-09T13:05:26;100673.56;;;24.26;60.29
24422;BME280;12600;53.326;-6.298;2022-09-09T13:08:01;100674.34;;;24.44;59.29
24422;BME280;12600;53.326;-6.298;2022-09-09T13:10:37;100657.19;;;24.28;58.13
24422;BME280;12600;53.326;-6.298;2022-09-09T13:13:38;100687.94;;;24.35;57.86
24422;BME280;12600;53.326;-6.298;2022-09-09T13:16:20;100690.75;;;23.96;54.21
24422;BME280;12600;53.326;-6.298;2022-09-09T13:18:51;100689.53;;;23.65;55.44
24422;BME280;12600;53.326;-6.298;2022-09-09T13:21:32;100691.91;;;23.45;56.10
24422;BME280;12600;53.326;-6.298;2022-09-09T13:24:03;100697.47;;;23.34;56.80
24422;BME280;12600;53.326;-6.298;2022-09-09T13:26:36;100698.22;;;23.28;57.48
24422;BME280;12600;53.326;-6.298;2022-09-09T13:29:17;100687.88;;;23.32;57.01
24422;BME280;12600;53.326;-6.298;2022-09-09T13:31:47;100689.88;;;23.38;57.85